createdAt,value
2019-01-18T00:00:40.949Z,68.57
2019-01-18T00:01:40.924Z,69.62
2019-01-18T00:02:40.911Z,70.09
2019-01-18T00:03:40.891Z,70.75
2019-01-18T00:04:40.875Z,71.12
2019-01-18T00:05:40.848Z,71.41
2019-01-18T00:06:40.828Z,72.64
2019-01-18T00:07:40.806Z,73.58
2019-01-18T00:08:40.790Z,74.43
2019-01-18T00:09:40.765Z,75.95
2019-01-18T00:10:40.746Z,76.51
2019-01-18T00:11:40.728Z,76.98
2019-01-18T00:12:40.731Z,77.26
2019-01-18T00:13:40.687Z,77.08
2019-01-18T00:14:40.667Z,76.7
2019-01-18T00:15:40.427Z,75.85
2019-01-18T00:16:40.627Z,74.71
2019-01-18T00:17:40.605Z,74.71
2019-01-18T00:18:40.594Z,75.19
2019-01-18T00:19:40.569Z,75.95
2019-01-18T00:20:40.547Z,77.93
2019-01-18T00:21:40.526Z,78.59
2019-01-18T00:22:40.506Z,79.16
2019-01-18T00:23:40.241Z,79.35
2019-01-18T00:24:40.470Z,79.53
2019-01-18T00:25:40.449Z,79.91
2019-01-18T00:26:40.427Z,79.82
2019-01-18T00:27:40.406Z,79.63
2019-01-18T00:28:40.389Z,78.78
2019-01-18T00:29:40.366Z,77.93
2019-01-18T00:30:40.347Z,76.7
2019-01-18T00:31:40.085Z,76.7
2019-01-18T00:32:40.305Z,76.14
2019-01-18T00:33:40.286Z,75.95
2019-01-18T00:34:40.267Z,75.19
2019-01-18T00:35:40.292Z,74.24
2019-01-18T00:36:40.226Z,73.49
2019-01-18T00:37:40.206Z,73.02
2019-01-18T00:38:40.188Z,74.24
2019-01-18T00:39:40.167Z,75.38
2019-01-18T00:40:40.149Z,76.79
2019-01-18T00:41:40.128Z,77.74
2019-01-18T00:42:40.107Z,79.06
2019-01-18T00:43:40.087Z,79.91
2019-01-18T00:44:40.069Z,80.38
2019-01-18T00:45:40.047Z,80.29
2019-01-18T00:46:40.027Z,80.57
2019-01-18T00:47:40.008Z,80
2019-01-18T00:48:39.990Z,79.53
2019-01-18T00:49:39.984Z,78.68
2019-01-18T00:50:39.953Z,78.31
2019-01-18T00:51:39.926Z,77.45
2019-01-18T00:52:52.642Z,77.64
2019-01-18T00:53:39.884Z,77.26
2019-01-18T00:54:39.871Z,76.61
2019-01-18T00:55:39.851Z,77.93
2019-01-18T00:56:39.828Z,78.78
2019-01-18T00:57:39.559Z,80
2019-01-18T00:58:39.787Z,82.56
2019-01-18T00:59:39.769Z,85.01
2019-01-18T01:00:39.745Z,86.52
2019-01-18T01:01:39.728Z,87.09
2019-01-18T01:02:39.710Z,86.9
2019-01-18T01:03:39.686Z,87.28
2019-01-18T01:04:39.667Z,87.18
2019-01-18T01:05:39.647Z,86.71
2019-01-18T01:06:39.629Z,86.33
2019-01-18T01:07:39.609Z,85.77
2019-01-18T01:08:39.589Z,85.3
2019-01-18T01:09:39.574Z,84.73
2019-01-18T01:10:39.548Z,85.3
2019-01-18T01:11:39.526Z,86.52
2019-01-18T01:12:39.508Z,88.04
2019-01-18T01:13:39.488Z,88.6
2019-01-18T01:14:39.220Z,88.6
2019-01-18T01:15:39.450Z,88.51
2019-01-18T01:16:39.434Z,88.89
2019-01-18T01:17:39.408Z,89.07
2019-01-18T01:18:39.386Z,88.7
2019-01-18T01:19:39.369Z,88.7
2019-01-18T01:20:39.385Z,88.79
2019-01-18T01:21:39.332Z,88.6
2019-01-18T01:22:39.310Z,89.17
2019-01-18T01:23:39.286Z,89.83
2019-01-18T01:24:39.271Z,90.77
2019-01-18T01:25:39.251Z,90.59
2019-01-18T01:26:39.240Z,90.3
2019-01-18T01:27:39.211Z,90.21
2019-01-18T01:28:39.190Z,89.54
2019-01-18T01:29:45.396Z,90.3
2019-01-18T01:30:39.154Z,89.73
2019-01-18T01:31:39.128Z,90.02
2019-01-18T01:32:39.114Z,90.59
2019-01-18T01:33:39.092Z,90.21
2019-01-18T01:34:39.072Z,89.64
2019-01-18T01:35:39.053Z,89.5
2019-01-18T01:36:39.030Z,89.92
2019-01-18T01:37:39.013Z,89.83
2019-01-18T01:38:38.990Z,89.92
2019-01-18T01:39:38.970Z,89.73
2019-01-18T01:40:38.951Z,90.49
2019-01-18T01:41:38.934Z,91.63
2019-01-18T01:42:38.914Z,92.76
2019-01-18T01:43:38.893Z,93.47
2019-01-18T01:44:38.878Z,93.04
2019-01-18T01:45:38.857Z,92.8
2019-01-18T01:46:38.838Z,93.66
2019-01-18T01:47:38.827Z,94.51
2019-01-18T01:48:38.795Z,94.41
2019-01-18T01:49:38.773Z,93.75
2019-01-18T01:50:38.510Z,93.28
2019-01-18T01:51:38.737Z,92.9
2019-01-18T01:52:38.720Z,92.43
2019-01-18T01:53:38.700Z,92.43
2019-01-18T01:54:38.679Z,91.96
2019-01-18T01:55:38.657Z,91.77
2019-01-18T01:56:38.641Z,91.01
2019-01-18T01:57:38.621Z,91.39
2019-01-18T01:58:38.599Z,90.82
2019-01-18T01:59:38.580Z,90.82
2019-01-18T02:00:38.560Z,91.1
2019-01-18T02:01:38.543Z,91.25
2019-01-18T02:02:38.524Z,91.44
2019-01-18T02:03:38.503Z,90.49
2019-01-18T02:04:38.483Z,89.83
2019-01-18T02:05:38.464Z,88.51
2019-01-18T02:06:38.441Z,87.94
2019-01-18T02:07:38.175Z,87.28
2019-01-18T02:08:38.409Z,87.13
2019-01-18T02:09:38.134Z,87.09
2019-01-18T02:10:38.359Z,87.51
2019-01-18T02:11:38.094Z,87.61
2019-01-18T02:12:38.333Z,88.17
2019-01-18T02:13:38.304Z,88.74
2019-01-18T02:14:38.288Z,88.74
2019-01-18T02:15:38.269Z,88.65
2019-01-18T02:16:38.247Z,88.65
2019-01-18T02:17:38.229Z,89.5
2019-01-18T02:18:38.207Z,89.69
2019-01-18T02:19:38.189Z,89.5
2019-01-18T02:20:38.166Z,90.06
2019-01-18T02:21:38.148Z,89.97
2019-01-18T02:22:38.131Z,89.69
2019-01-18T02:23:38.108Z,89.97
2019-01-18T02:24:38.089Z,90.35
2019-01-18T02:25:38.076Z,90.44
2019-01-18T02:26:38.053Z,90.73
2019-01-18T02:27:38.033Z,92.05
2019-01-18T02:28:38.012Z,92.99
2019-01-18T02:29:37.992Z,93.09
2019-01-18T02:30:37.722Z,93.75
2019-01-18T02:31:37.952Z,94.32
2019-01-18T02:32:37.933Z,94.74
2019-01-18T02:33:37.918Z,95.17
2019-01-18T02:34:37.896Z,94.27
2019-01-18T02:35:37.875Z,95.21
2019-01-18T02:36:37.606Z,95.17
2019-01-18T02:37:37.839Z,95.45
2019-01-18T02:38:37.812Z,95.21
2019-01-18T02:39:37.793Z,95.03
2019-01-18T02:40:37.780Z,94.18
2019-01-18T02:41:37.509Z,94.18
2019-01-18T02:42:37.736Z,92.8
2019-01-18T02:43:37.717Z,92.19
2019-01-18T02:44:37.695Z,91.34
2019-01-18T02:45:37.430Z,90.25
2019-01-18T02:46:37.657Z,89.78
2019-01-18T02:47:37.636Z,89.5
2019-01-18T02:48:37.618Z,88.65
2019-01-18T02:49:37.607Z,88.13
2019-01-18T02:50:37.333Z,87.04
2019-01-18T02:51:37.557Z,87.47
2019-01-18T02:52:37.297Z,87.75
2019-01-18T02:53:37.522Z,87.85
2019-01-18T02:54:37.510Z,88.17
2019-01-18T02:55:37.482Z,88.74
2019-01-18T02:56:37.462Z,88.79
2019-01-18T02:57:37.442Z,89.5
2019-01-18T02:58:37.428Z,90.44
2019-01-18T02:59:37.408Z,91.01
2019-01-18T03:00:37.135Z,94.22
2019-01-18T03:01:37.370Z,95.07
2019-01-18T03:02:37.344Z,95.64
2019-01-18T03:03:37.325Z,96.49
2019-01-18T03:04:37.303Z,96.59
2019-01-18T03:05:37.289Z,97.53
2019-01-18T03:06:37.265Z,97.77
2019-01-18T03:07:37.249Z,97.53
2019-01-18T03:08:37.231Z,97.34
2019-01-18T03:09:37.207Z,97.44
2019-01-18T03:10:37.191Z,97.91
2019-01-18T03:11:37.167Z,98.24
2019-01-18T03:12:37.149Z,98.71
2019-01-18T03:13:37.129Z,99.04
2019-01-18T03:14:37.113Z,99.42
2019-01-18T03:15:37.084Z,99.08
2019-01-18T03:16:37.075Z,99.18
2019-01-18T03:17:37.046Z,98.99
2019-01-18T03:18:37.028Z,98.9
2019-01-18T03:19:37.006Z,97.86
2019-01-18T03:20:37.021Z,97.01
2019-01-18T03:21:36.723Z,95.78
2019-01-18T03:22:36.952Z,95.92
2019-01-18T03:23:36.931Z,94.74
2019-01-18T03:24:36.912Z,94.32
2019-01-18T03:25:36.894Z,95.07
2019-01-18T03:26:36.874Z,95.03
2019-01-18T03:27:36.856Z,94.89
2019-01-18T03:28:36.907Z,94.89
2019-01-18T03:29:36.820Z,94.98
2019-01-18T03:30:36.814Z,95.73
2019-01-18T03:31:36.781Z,97.91
2019-01-18T03:32:36.763Z,98.38
2019-01-18T03:33:36.736Z,99.33
2019-01-18T03:34:36.720Z,99.99
2019-01-18T03:35:36.696Z,99.99
2019-01-18T03:36:36.678Z,99.42
2019-01-18T03:37:36.657Z,99.23
2019-01-18T03:38:36.642Z,99.99
2019-01-18T03:39:36.619Z,99.99
2019-01-18T03:40:36.348Z,99.99
2019-01-18T03:41:36.578Z,99.99
2019-01-18T03:42:36.557Z,99.08
2019-01-18T03:43:36.539Z,97.63
2019-01-18T03:44:36.515Z,96.87
2019-01-18T03:45:36.500Z,95.31
2019-01-18T03:46:36.477Z,94.74
2019-01-18T03:47:36.509Z,93.8
2019-01-18T03:48:36.445Z,93.42
2019-01-18T03:49:36.421Z,93.84
2019-01-18T03:50:36.408Z,94.37
2019-01-18T03:51:36.380Z,94.37
2019-01-18T03:52:36.368Z,95.31
2019-01-18T03:53:36.409Z,95.92
2019-01-18T03:54:36.323Z,99.33
2019-01-18T03:55:36.309Z,99.99
2019-01-18T03:56:36.284Z,99.99
2019-01-18T03:57:36.270Z,99.99
2019-01-18T03:58:36.248Z,99.89
2019-01-18T03:59:36.222Z,99.99
2019-01-18T04:00:36.207Z,99.99
2019-01-18T04:01:36.188Z,99.99
2019-01-18T04:02:36.174Z,99.99
2019-01-18T04:03:36.148Z,99.99
2019-01-18T04:04:36.138Z,99.84
2019-01-18T04:05:36.108Z,98.8
2019-01-18T04:06:36.089Z,97.39
2019-01-18T04:07:36.067Z,97.01
2019-01-18T04:08:36.048Z,95.87
2019-01-18T04:09:36.027Z,94.93
2019-01-18T04:10:36.009Z,94.37
2019-01-18T04:11:35.990Z,93.61
2019-01-18T04:12:35.970Z,94.84
2019-01-18T04:13:35.952Z,96.06
2019-01-18T04:14:35.930Z,95.68
2019-01-18T04:15:35.910Z,95.87
2019-01-18T04:16:35.887Z,95.21
2019-01-18T04:17:35.871Z,94.37
2019-01-18T04:18:35.848Z,93.99
2019-01-18T04:19:35.829Z,95.4
2019-01-18T04:20:35.815Z,95.59
2019-01-18T04:21:35.790Z,95.31
2019-01-18T04:22:35.784Z,96.16
2019-01-18T04:23:35.502Z,96.25
2019-01-18T04:24:35.737Z,96.25
2019-01-18T04:25:35.709Z,96.44
2019-01-18T04:26:35.697Z,96.16
2019-01-18T04:27:35.683Z,97.67
2019-01-18T04:28:35.653Z,98.52
2019-01-18T04:29:35.639Z,99.27
2019-01-18T04:30:36.008Z,99.84
2019-01-18T04:31:35.586Z,99.99
2019-01-18T04:32:35.570Z,99.99
2019-01-18T04:33:35.551Z,99.99
2019-01-18T04:34:35.530Z,99.99
2019-01-18T04:35:35.516Z,99.99
2019-01-18T04:36:35.491Z,99.99
2019-01-18T04:37:35.476Z,99.99
2019-01-18T04:38:35.468Z,99.99
2019-01-18T04:39:35.449Z,99.99
2019-01-18T04:40:35.413Z,99.99
2019-01-18T04:41:35.141Z,99.99
2019-01-18T04:42:35.376Z,99.99
2019-01-18T04:43:35.348Z,99.99
2019-01-18T04:44:35.079Z,99.99
2019-01-18T04:45:35.307Z,99.99
2019-01-18T04:46:35.284Z,99.99
2019-01-18T04:47:35.272Z,99.99
2019-01-18T04:48:35.254Z,99.99
2019-01-18T04:49:35.227Z,99.99
2019-01-18T04:50:35.206Z,99.99
2019-01-18T04:51:35.197Z,99.99
2019-01-18T04:52:35.171Z,99.99
2019-01-18T04:53:35.149Z,99.99
2019-01-18T04:54:35.129Z,99.99
2019-01-18T04:55:35.111Z,99.99
2019-01-18T04:56:35.100Z,99.99
2019-01-18T04:57:35.073Z,99.99
2019-01-18T04:58:35.050Z,99.99
2019-01-18T04:59:35.028Z,99.99
2019-01-18T05:00:40.401Z,99.65
2019-01-18T05:01:34.995Z,99.65
2019-01-18T05:02:34.983Z,99.94
2019-01-18T05:03:34.945Z,99.99
2019-01-18T05:04:34.931Z,99.99
2019-01-18T05:05:34.906Z,99.84
2019-01-18T05:06:34.893Z,99.18
2019-01-18T05:07:35.066Z,99.27
2019-01-18T05:08:34.849Z,98.71
2019-01-18T05:09:34.853Z,98.05
2019-01-18T05:10:34.808Z,97.96
2019-01-18T05:11:34.810Z,97.58
2019-01-18T05:12:34.771Z,97.58
2019-01-18T05:13:34.751Z,96.73
2019-01-18T05:14:34.724Z,97.58
2019-01-18T05:15:34.468Z,99.56
2019-01-18T05:16:34.685Z,99.99
2019-01-18T05:17:34.703Z,99.99
2019-01-18T05:18:34.397Z,99.99
2019-01-18T05:19:34.626Z,99.99
2019-01-18T05:20:34.607Z,99.99
2019-01-18T05:21:34.591Z,99.99
2019-01-18T05:22:34.584Z,99.99
2019-01-18T05:23:34.307Z,99.99
2019-01-18T05:24:34.527Z,99.99
2019-01-18T05:25:34.515Z,99.99
2019-01-18T05:26:34.487Z,99.99
2019-01-18T05:27:34.470Z,99.99
2019-01-18T05:28:34.451Z,99.99
2019-01-18T05:29:34.427Z,99.99
2019-01-18T05:30:34.412Z,99.99
2019-01-18T05:31:34.385Z,99.99
2019-01-18T05:32:34.365Z,99.99
2019-01-18T05:33:34.344Z,99.46
2019-01-18T05:34:34.325Z,99.27
2019-01-18T05:35:34.308Z,98.99
2019-01-18T05:36:34.285Z,99.18
2019-01-18T05:37:34.267Z,99.27
2019-01-18T05:38:34.246Z,99.08
2019-01-18T05:39:34.230Z,98.9
2019-01-18T05:40:34.210Z,98.61
2019-01-18T05:41:34.182Z,97.2
2019-01-18T05:42:34.165Z,96.91
2019-01-18T05:43:33.896Z,97.48
2019-01-18T05:44:34.126Z,97.58
2019-01-18T05:45:34.109Z,97.29
2019-01-18T05:46:34.088Z,97.01
2019-01-18T05:47:34.066Z,95.87
2019-01-18T05:48:34.048Z,95.68
2019-01-18T05:49:34.024Z,95.78
2019-01-18T05:50:34.019Z,95.5
2019-01-18T05:51:33.992Z,95.12
2019-01-18T05:52:34.957Z,94.56
2019-01-18T05:53:33.951Z,95.03
2019-01-18T05:54:33.930Z,94.65
2019-01-18T05:55:33.902Z,94.84
2019-01-18T05:56:33.890Z,94.37
2019-01-18T05:57:33.871Z,93.13
2019-01-18T05:58:33.845Z,92.19
2019-01-18T05:59:33.574Z,90.59
2019-01-18T06:00:33.806Z,89.54
2019-01-18T06:01:33.786Z,88.23
2019-01-18T06:02:33.768Z,85.68
2019-01-18T06:03:33.495Z,84.16
2019-01-18T06:04:33.724Z,82.93
2019-01-18T06:05:33.454Z,80.85
2019-01-18T06:06:33.681Z,79.35
2019-01-18T06:07:33.672Z,78.02
2019-01-18T06:08:33.642Z,76.14
2019-01-18T06:09:33.623Z,75.09
2019-01-18T06:10:33.602Z,73.02
2019-01-18T06:11:33.579Z,72.55
2019-01-18T06:12:33.562Z,71.03
2019-01-18T06:13:33.550Z,70.65
2019-01-18T06:14:33.520Z,69.81
2019-01-18T06:15:33.503Z,69.43
2019-01-18T06:16:33.480Z,70.18
2019-01-18T06:17:33.465Z,70.28
2019-01-18T06:18:33.440Z,70.28
2019-01-18T06:19:33.422Z,70
2019-01-18T06:20:33.396Z,71.03
2019-01-18T06:21:33.380Z,72.64
2019-01-18T06:22:33.360Z,73.02
2019-01-18T06:23:33.342Z,73.77
2019-01-18T06:24:33.326Z,75.28
2019-01-18T06:25:33.301Z,76.79
2019-01-18T06:26:33.031Z,78.12
2019-01-18T06:27:33.264Z,78.5
2019-01-18T06:28:33.239Z,79.44
2019-01-18T06:29:33.223Z,79.82
2019-01-18T06:30:33.201Z,80.1
2019-01-18T06:31:33.176Z,80.1
2019-01-18T06:32:33.158Z,80.48
2019-01-18T06:33:33.141Z,81.04
2019-01-18T06:34:33.119Z,81.42
2019-01-18T06:35:33.097Z,81.71
2019-01-18T06:36:33.095Z,81.8
2019-01-18T06:37:33.057Z,82.18
2019-01-18T06:38:33.035Z,82.18
2019-01-18T06:39:33.015Z,81.71
2019-01-18T06:40:32.751Z,81.33
2019-01-18T06:41:32.975Z,81.71
2019-01-18T06:42:32.956Z,81.52
2019-01-18T06:43:32.937Z,82.09
2019-01-18T06:44:32.917Z,82.46
2019-01-18T06:45:32.891Z,82.75
2019-01-18T06:46:32.877Z,83.59
2019-01-18T06:47:32.857Z,84.07
2019-01-18T06:48:32.830Z,84.26
2019-01-18T06:49:32.573Z,84.26
2019-01-18T06:50:32.797Z,84.16
2019-01-18T06:51:32.525Z,84.16
2019-01-18T06:52:32.753Z,83.69
2019-01-18T06:53:32.482Z,83.78
2019-01-18T06:54:32.719Z,83.69
2019-01-18T06:55:32.695Z,82.93
2019-01-18T06:56:32.673Z,82.56
2019-01-18T06:57:32.652Z,82.28
2019-01-18T06:58:32.631Z,82.14
2019-01-18T06:59:32.614Z,81.71
2019-01-18T07:00:32.590Z,81.71
2019-01-18T07:01:32.570Z,82.28
2019-01-18T07:02:32.303Z,82.84
2019-01-18T07:03:32.531Z,82.93
2019-01-18T07:04:32.514Z,83.69
2019-01-18T07:05:32.494Z,83.4
2019-01-18T07:06:32.471Z,83.59
2019-01-18T07:07:32.454Z,83.69
2019-01-18T07:08:32.431Z,84.07
2019-01-18T07:09:32.166Z,84.07
2019-01-18T07:10:32.390Z,84.82
2019-01-18T07:11:32.369Z,85.11
2019-01-18T07:12:32.350Z,85.01
2019-01-18T07:13:32.326Z,84.07
2019-01-18T07:14:32.310Z,83.97
2019-01-18T07:15:32.288Z,84.16
2019-01-18T07:16:32.272Z,83.97
2019-01-18T07:17:32.253Z,83.4
2019-01-18T07:18:32.228Z,82.84
2019-01-18T07:19:32.207Z,82.84
2019-01-18T07:20:32.188Z,83.4
2019-01-18T07:21:32.163Z,83.59
2019-01-18T07:22:32.144Z,84.16
2019-01-18T07:23:32.127Z,84.54
2019-01-18T07:24:32.106Z,84.26
2019-01-18T07:25:32.089Z,84.07
2019-01-18T07:26:32.067Z,83.88
2019-01-18T07:27:32.047Z,86.33
2019-01-18T07:28:32.026Z,88.51
2019-01-18T07:29:32.006Z,90.4
2019-01-18T07:30:31.738Z,92.47
2019-01-18T07:31:31.967Z,93.61
2019-01-18T07:32:31.946Z,94.84
2019-01-18T07:33:31.925Z,95.12
2019-01-18T07:34:31.904Z,94.74
2019-01-18T07:35:31.891Z,94.37
2019-01-18T07:36:31.865Z,94.65
2019-01-18T07:37:31.848Z,94.65
2019-01-18T07:38:31.832Z,95.12
2019-01-18T07:39:31.804Z,95.12
2019-01-18T07:40:31.787Z,94.84
2019-01-18T07:41:31.763Z,94.84
2019-01-18T07:42:31.743Z,95.78
2019-01-18T07:43:31.727Z,97.01
2019-01-18T07:44:31.705Z,97.58
2019-01-18T07:45:31.684Z,97.58
2019-01-18T07:46:31.659Z,98.8
2019-01-18T07:47:31.641Z,99.99
2019-01-18T07:48:31.621Z,99.99
2019-01-18T07:49:31.599Z,99.99
2019-01-18T07:50:31.591Z,99.99
2019-01-18T07:51:31.559Z,99.99
2019-01-18T07:52:31.542Z,99.99
2019-01-18T07:53:31.522Z,99.99
2019-01-18T07:54:31.503Z,99.99
2019-01-18T07:55:31.485Z,99.99
2019-01-18T07:56:31.462Z,99.99
2019-01-18T07:57:31.444Z,99.99
2019-01-18T07:58:31.421Z,99.99
2019-01-18T07:59:31.398Z,99.99
2019-01-18T08:00:31.379Z,99.99
2019-01-18T08:01:31.361Z,99.99
2019-01-18T08:02:31.341Z,99.99
2019-01-18T08:03:31.324Z,99.99
2019-01-18T08:04:31.298Z,99.99
2019-01-18T08:05:31.279Z,99.99
2019-01-18T08:06:31.259Z,99.99
2019-01-18T08:07:31.237Z,99.99
2019-01-18T08:08:30.972Z,99.99
2019-01-18T08:09:31.198Z,99.99
2019-01-18T08:10:31.183Z,99.99
2019-01-18T08:11:31.160Z,99.99
2019-01-18T08:12:31.137Z,99.99
2019-01-18T08:13:31.118Z,99.99
2019-01-18T08:14:31.097Z,99.99
2019-01-18T08:15:31.079Z,99.99
2019-01-18T08:16:31.058Z,99.99
2019-01-18T08:17:31.037Z,99.99
2019-01-18T08:18:31.020Z,99.99
2019-01-18T08:19:30.996Z,99.99
2019-01-18T08:20:30.975Z,99.99
2019-01-18T08:21:30.958Z,99.99
2019-01-18T08:22:30.936Z,99.99
2019-01-18T08:23:30.916Z,99.99
2019-01-18T08:24:30.895Z,99.99
2019-01-18T08:25:30.630Z,99.99
2019-01-18T08:26:30.859Z,99.99
2019-01-18T08:27:30.585Z,99.99
2019-01-18T08:28:30.815Z,99.99
2019-01-18T08:29:30.794Z,99.99
2019-01-18T08:30:30.785Z,99.99
2019-01-18T08:31:31.536Z,99.99
2019-01-18T08:32:30.733Z,99.99
2019-01-18T08:33:30.712Z,99.99
2019-01-18T08:34:30.692Z,99.99
2019-01-18T08:35:30.678Z,99.99
2019-01-18T08:36:30.658Z,99.99
2019-01-18T08:37:30.635Z,99.99
2019-01-18T08:38:30.614Z,99.99
2019-01-18T08:39:30.602Z,99.99
2019-01-18T08:40:30.575Z,99.99
2019-01-18T08:41:30.556Z,99.99
2019-01-18T08:42:30.288Z,99.99
2019-01-18T08:43:30.511Z,99.99
2019-01-18T08:44:30.496Z,99.99
2019-01-18T08:45:30.475Z,99.99
2019-01-18T08:46:30.454Z,99.99
2019-01-18T08:47:30.437Z,99.99
2019-01-18T08:48:30.411Z,99.99
2019-01-18T08:49:30.397Z,99.99
2019-01-18T08:50:30.374Z,99.99
2019-01-18T08:51:30.357Z,99.99
2019-01-18T08:52:30.334Z,99.99
2019-01-18T08:53:30.319Z,99.99
2019-01-18T08:54:30.298Z,99.99
2019-01-18T08:55:30.276Z,99.99
2019-01-18T08:56:30.264Z,99.99
2019-01-18T08:57:30.234Z,99.99
2019-01-18T08:58:30.215Z,99.99
2019-01-18T08:59:30.197Z,99.99
2019-01-18T09:00:30.178Z,99.99
2019-01-18T09:01:35.610Z,99.99
2019-01-18T09:02:30.134Z,99.99
2019-01-18T09:03:30.110Z,99.99
2019-01-18T09:04:29.846Z,99.99
2019-01-18T09:05:30.075Z,99.99
2019-01-18T09:06:30.055Z,99.99
2019-01-18T09:07:30.038Z,99.99
2019-01-18T09:08:30.015Z,99.99
2019-01-18T09:09:29.996Z,99.99
2019-01-18T09:10:29.974Z,99.99
2019-01-18T09:11:29.708Z,99.99
2019-01-18T09:12:29.935Z,99.99
2019-01-18T09:13:29.917Z,99.99
2019-01-18T09:14:29.898Z,99.99
2019-01-18T09:15:29.875Z,99.99
2019-01-18T09:16:29.862Z,99.99
2019-01-18T09:17:29.839Z,99.99
2019-01-18T09:18:29.818Z,99.99
2019-01-18T09:19:29.795Z,99.99
2019-01-18T09:20:29.529Z,99.99
2019-01-18T09:21:29.758Z,99.99
2019-01-18T09:22:29.739Z,99.99
2019-01-18T09:23:29.719Z,99.99
2019-01-18T09:24:29.699Z,99.99
2019-01-18T09:25:29.728Z,99.99
2019-01-18T09:26:29.663Z,99.99
2019-01-18T09:27:29.637Z,99.99
2019-01-18T09:28:29.619Z,99.99
2019-01-18T09:29:29.599Z,99.99
2019-01-18T09:30:29.577Z,99.99
2019-01-18T09:31:29.558Z,99.99
2019-01-18T09:32:29.541Z,99.99
2019-01-18T09:33:29.523Z,99.99
2019-01-18T09:34:29.513Z,99.99
2019-01-18T09:35:29.484Z,99.99
2019-01-18T09:36:29.214Z,99.99
2019-01-18T09:37:29.446Z,99.99
2019-01-18T09:38:29.426Z,99.99
2019-01-18T09:39:29.404Z,99.99
2019-01-18T09:40:29.386Z,99.99
2019-01-18T09:41:29.364Z,99.99
2019-01-18T09:42:29.353Z,99.99
2019-01-18T09:43:29.326Z,99.99
2019-01-18T09:44:29.308Z,99.99
2019-01-18T09:45:29.489Z,99.99
2019-01-18T09:46:29.302Z,99.99
2019-01-18T09:47:29.247Z,99.99
2019-01-18T09:48:29.233Z,99.99
2019-01-18T09:49:29.206Z,99.99
2019-01-18T09:50:29.192Z,99.99
2019-01-18T09:51:29.170Z,99.99
2019-01-18T09:52:29.150Z,99.99
2019-01-18T09:53:29.131Z,99.99
2019-01-18T09:54:29.113Z,99.99
2019-01-18T09:55:29.094Z,99.99
2019-01-18T09:56:29.077Z,99.99
2019-01-18T09:57:29.058Z,99.99
2019-01-18T09:58:29.037Z,99.99
2019-01-18T09:59:29.019Z,99.99
2019-01-18T10:00:28.998Z,99.99
2019-01-18T10:01:28.983Z,99.99
2019-01-18T10:02:28.965Z,99.99
2019-01-18T10:03:28.940Z,99.99
2019-01-18T10:04:28.926Z,99.99
2019-01-18T10:05:28.910Z,99.99
2019-01-18T10:06:28.888Z,99.99
2019-01-18T10:07:28.870Z,99.99
2019-01-18T10:08:28.852Z,99.99
2019-01-18T10:09:28.830Z,99.99
2019-01-18T10:10:28.810Z,99.99
2019-01-18T10:11:28.796Z,99.99
2019-01-18T10:12:28.770Z,99.99
2019-01-18T10:13:28.749Z,99.99
2019-01-18T10:14:28.487Z,99.99
2019-01-18T10:15:28.718Z,99.99
2019-01-18T10:16:28.695Z,99.99
2019-01-18T10:17:28.677Z,99.99
2019-01-18T10:18:28.658Z,99.99
2019-01-18T10:19:28.644Z,99.99
2019-01-18T10:20:28.616Z,99.99
2019-01-18T10:21:28.352Z,99.99
2019-01-18T10:22:28.582Z,99.99
2019-01-18T10:23:28.313Z,99.99
2019-01-18T10:24:28.548Z,99.99
2019-01-18T10:25:28.527Z,99.99
2019-01-18T10:26:28.504Z,99.99
2019-01-18T10:27:28.483Z,99.99
2019-01-18T10:28:28.466Z,99.99
2019-01-18T10:29:30.699Z,99.99
2019-01-18T10:30:28.177Z,99.99
2019-01-18T10:31:28.162Z,99.99
2019-01-18T10:32:28.390Z,99.99
2019-01-18T10:33:28.371Z,99.99
2019-01-18T10:34:28.353Z,99.99
2019-01-18T10:35:28.331Z,99.99
2019-01-18T10:36:28.315Z,99.99
2019-01-18T10:37:28.344Z,99.99
2019-01-18T10:38:28.330Z,99.99
2019-01-18T10:39:28.306Z,99.99
2019-01-18T10:40:28.331Z,99.99
2019-01-18T10:41:28.310Z,99.99
2019-01-18T10:42:28.290Z,99.99
2019-01-18T10:43:28.083Z,99.99
2019-01-18T10:44:28.314Z,99.99
2019-01-18T10:45:28.295Z,99.99
2019-01-18T10:46:28.332Z,99.99
2019-01-18T10:47:28.063Z,99.99
2019-01-18T10:48:28.295Z,99.99
2019-01-18T10:49:28.332Z,99.99
2019-01-18T10:50:28.316Z,99.99
2019-01-18T10:51:28.296Z,99.99
2019-01-18T10:52:28.336Z,99.99
2019-01-18T10:53:28.319Z,99.99
2019-01-18T10:54:28.298Z,99.99
2019-01-18T10:55:28.335Z,99.99
2019-01-18T10:56:28.315Z,99.99
2019-01-18T10:57:28.305Z,99.99
2019-01-18T10:58:28.339Z,99.99
2019-01-18T10:59:28.321Z,99.99
2019-01-18T11:00:28.298Z,99.99
2019-01-18T11:01:28.347Z,99.99
2019-01-18T11:02:28.321Z,98.33
2019-01-18T11:03:28.306Z,99.47
2019-01-18T11:04:28.351Z,97.39
2019-01-18T11:05:28.322Z,95.5
2019-01-18T11:06:28.304Z,94.37
2019-01-18T11:07:28.346Z,92.85
2019-01-18T11:08:28.327Z,90.77
2019-01-18T11:09:28.309Z,90.49
2019-01-18T11:10:28.098Z,90.11
2019-01-18T11:11:28.323Z,92.47
2019-01-18T11:12:28.304Z,95.03
2019-01-18T11:13:28.351Z,95.59
2019-01-18T11:14:28.330Z,95.21
2019-01-18T11:15:28.321Z,97.3
2019-01-18T11:16:28.349Z,98.1
2019-01-18T11:17:28.372Z,97.25
2019-01-18T11:18:28.313Z,97.72
2019-01-18T11:19:28.349Z,99.23
2019-01-18T11:20:28.384Z,99.99
2019-01-18T11:21:28.315Z,99.99
2019-01-18T11:22:28.104Z,99.99
2019-01-18T11:23:28.331Z,99.99
2019-01-18T11:24:28.314Z,99.99
2019-01-18T11:25:34.211Z,99.99
2019-01-18T11:26:28.333Z,99.99
2019-01-18T11:27:28.314Z,99.99
2019-01-18T11:28:28.354Z,99.99
2019-01-18T11:29:28.329Z,99.99
2019-01-18T11:30:28.314Z,99.99
2019-01-18T11:31:28.393Z,99.99
2019-01-18T11:32:28.337Z,99.99
2019-01-18T11:33:28.074Z,99.99
2019-01-18T11:34:28.373Z,99.99
2019-01-18T11:35:28.337Z,99.99
2019-01-18T11:36:28.320Z,99.99
2019-01-18T11:37:28.305Z,99.99
2019-01-18T11:38:28.289Z,99.99
2019-01-18T11:39:28.266Z,99.99
2019-01-18T11:40:28.250Z,99.99
2019-01-18T11:41:28.229Z,99.99
2019-01-18T11:42:28.210Z,99.99
2019-01-18T11:43:28.192Z,99.99
2019-01-18T11:44:27.921Z,99.99
2019-01-18T11:45:28.151Z,99.99
2019-01-18T11:46:27.885Z,99.99
2019-01-18T11:47:28.400Z,99.99
2019-01-18T11:48:28.098Z,99.89
2019-01-18T11:49:28.079Z,99.99
2019-01-18T11:50:28.065Z,99.99
2019-01-18T11:51:28.044Z,99.99
2019-01-18T11:52:28.019Z,99.99
2019-01-18T11:53:28.003Z,99.99
2019-01-18T11:54:27.983Z,99.99
2019-01-18T11:55:27.963Z,99.99
2019-01-18T11:56:27.948Z,99.99
2019-01-18T11:57:27.926Z,99.99
2019-01-18T11:58:27.904Z,99.99
2019-01-18T11:59:27.888Z,99.99
2019-01-18T12:00:27.869Z,99.99
2019-01-18T12:01:27.853Z,99.99
2019-01-18T12:02:27.832Z,99.99
2019-01-18T12:03:27.814Z,99.99
2019-01-18T12:04:27.795Z,95.69
2019-01-18T12:05:27.536Z,96.07
2019-01-18T12:06:27.758Z,97.11
2019-01-18T12:07:27.740Z,91.53
2019-01-18T12:08:27.724Z,90.58
2019-01-18T12:09:27.705Z,90.86
2019-01-18T12:10:27.689Z,91.24
2019-01-18T12:11:27.667Z,90.58
2019-01-18T12:12:27.876Z,91.86
2019-01-18T12:13:27.639Z,93.75
2019-01-18T12:14:27.610Z,95.45
2019-01-18T12:15:27.592Z,96.11
2019-01-18T12:16:27.571Z,93.66
2019-01-18T12:17:27.556Z,93.66
2019-01-18T12:18:27.542Z,93.66
2019-01-18T12:19:27.520Z,94.51
2019-01-18T12:20:27.505Z,94.6
2019-01-18T12:21:27.478Z,96.02
2019-01-18T12:22:27.211Z,97.44
2019-01-18T12:23:27.442Z,94.41
2019-01-18T12:24:27.429Z,95.54
2019-01-18T12:25:27.410Z,97.91
2019-01-18T12:26:27.384Z,99.84
2019-01-18T12:27:27.369Z,99.99
2019-01-18T12:28:27.350Z,99.99
2019-01-18T12:29:27.331Z,99.99
2019-01-18T12:30:27.311Z,99.99
2019-01-18T12:31:27.041Z,99.99
2019-01-18T12:32:31.241Z,99.27
2019-01-18T12:33:27.252Z,99.65
2019-01-18T12:34:27.243Z,99.56
2019-01-18T12:35:27.214Z,99.99
2019-01-18T12:36:27.196Z,99.99
2019-01-18T12:37:27.178Z,99.99
2019-01-18T12:38:26.910Z,99.99
2019-01-18T12:39:27.136Z,99.99
2019-01-18T12:40:27.121Z,99.99
2019-01-18T12:41:27.104Z,99.99
2019-01-18T12:42:27.081Z,99.99
2019-01-18T12:43:27.066Z,99.99
2019-01-18T12:44:26.794Z,99.99
2019-01-18T12:45:27.018Z,99.99
2019-01-18T12:46:27.005Z,99.99
2019-01-18T12:47:26.984Z,99.99
2019-01-18T12:48:26.969Z,99.99
2019-01-18T12:49:26.742Z,99.99
2019-01-18T12:50:26.924Z,99.99
2019-01-18T12:51:26.908Z,99.99
2019-01-18T12:52:26.639Z,99.99
2019-01-18T12:53:26.866Z,99.99
2019-01-18T12:54:26.854Z,99.99